createdAt,value
2022-09-04T00:01:15.250Z,96255.88
2022-09-04T00:03:46.856Z,96245.50
2022-09-04T00:06:21.296Z,96250.28
2022-09-04T00:09:17.613Z,96246.75
2022-09-04T00:12:04.563Z,96238.06
2022-09-04T00:14:45.855Z,96232.69
2022-09-04T00:17:36.133Z,96238.47
2022-09-04T00:20:07.714Z,96244.88
2022-09-04T00:22:56.516Z,96251.28
2022-09-04T00:25:32.873Z,96255.63
2022-09-04T00:28:18.025Z,96246.09
2022-09-04T00:30:50.428Z,96249.63
2022-09-04T00:33:28.969Z,96252.09
2022-09-04T00:36:02.151Z,96253.09
2022-09-04T00:38:43.352Z,96253.91
2022-09-04T00:41:27.253Z,96254.06
2022-09-04T00:44:15.519Z,96252.81
2022-09-04T00:46:52.226Z,96251.38
2022-09-04T00:49:29.757Z,96255.47
2022-09-04T00:52:19.694Z,96252.38
2022-09-04T00:55:07.747Z,96244.09
2022-09-04T00:57:57.642Z,96244.63
2022-09-04T01:00:27.940Z,96254.97
2022-09-04T01:03:14.948Z,96252.69
2022-09-04T01:05:51.970Z,96263.81
2022-09-04T01:09:01.292Z,96261.72
2022-09-04T01:12:22.219Z,96256.56
2022-09-04T01:15:11.453Z,96272.69
2022-09-04T01:18:00.178Z,96272.22
2022-09-04T01:20:51.515Z,96274.09
2022-09-04T01:23:18.176Z,96274.09
2022-09-04T01:26:16.041Z,96266.63
2022-09-04T01:28:45.750Z,96271.38
2022-09-04T01:31:34.210Z,96267.44
2022-09-04T01:34:07.132Z,96272.56
2022-09-04T01:37:01.609Z,96266.94
2022-09-04T01:39:32.116Z,96268.16
2022-09-04T01:42:11.468Z,96275.41
2022-09-04T01:44:38.277Z,96266.50
2022-09-04T01:47:30.759Z,96272.91
2022-09-04T01:50:04.260Z,96279.72
2022-09-04T01:52:38.747Z,96280.88
2022-09-04T01:55:12.402Z,96279.22
2022-09-04T01:57:44.902Z,96280.63
2022-09-04T02:00:13.885Z,96276.28
2022-09-04T02:03:03.105Z,96283.72
2022-09-04T02:05:32.462Z,96277.69
2022-09-04T02:08:06.329Z,96274.41
2022-09-04T02:10:51.251Z,96275.41
2022-09-04T02:14:04.436Z,96265.06
2022-09-04T02:16:54.258Z,96275.78
2022-09-04T02:19:26.676Z,96281.13
2022-09-04T02:22:07.219Z,96284.16
2022-09-04T02:25:15.413Z,96285.59
2022-09-04T02:28:04.756Z,96289.13
2022-09-04T02:30:54.755Z,96289.13
2022-09-04T02:33:36.812Z,96276.72
2022-09-04T02:36:12.080Z,96281.63
2022-09-04T02:38:51.761Z,96283.50
2022-09-04T02:41:51.120Z,96279.16
2022-09-04T02:44:43.519Z,96294.16
2022-09-04T02:47:32.065Z,96292.03
2022-09-04T02:50:08.020Z,96292.69
2022-09-04T02:52:41.881Z,96294.34
2022-09-04T02:55:45.797Z,96296.19
2022-09-04T02:58:47.695Z,96310.25
2022-09-04T03:01:22.753Z,96307.38
2022-09-04T03:04:09.192Z,96312.72
2022-09-04T03:06:52.245Z,96314.97
2022-09-04T03:09:50.634Z,96314.97
2022-09-04T03:12:49.009Z,96321.16
2022-09-04T03:15:31.075Z,96315.53
2022-09-04T03:18:25.541Z,96327.28
2022-09-04T03:21:01.710Z,96327.47
2022-09-04T03:23:51.952Z,96327.69
2022-09-04T03:26:20.750Z,96327.88
2022-09-04T03:29:24.764Z,96326.22
2022-09-04T03:32:15.025Z,96320.78
2022-09-04T03:34:57.706Z,96329.22
2022-09-04T03:37:54.926Z,96327.16
2022-09-04T03:40:43.167Z,96343.69
2022-09-04T03:43:36.236Z,96338.13
2022-09-04T03:46:55.264Z,96345.53
2022-09-04T03:50:03.651Z,96341.56
2022-09-04T03:52:55.975Z,96352.44
2022-09-04T03:55:22.573Z,96355.31
2022-09-04T03:57:49.302Z,96350.34
2022-09-04T04:00:20.075Z,96360.53
2022-09-04T04:03:18.850Z,96357.56
2022-09-04T04:06:06.969Z,96367.66
2022-09-04T04:08:44.550Z,96367.47
2022-09-04T04:11:30.258Z,96366.66
2022-09-04T04:14:18.364Z,96364.81
2022-09-04T04:17:03.889Z,96368.50
2022-09-04T04:19:49.626Z,96380.16
2022-09-04T04:22:31.257Z,96380.53
2022-09-04T04:25:14.794Z,96392.28
2022-09-04T04:28:00.305Z,96389.59
2022-09-04T04:30:37.242Z,96388.47
2022-09-04T04:33:38.072Z,96394.22
2022-09-04T04:36:13.337Z,96395.41
2022-09-04T04:38:47.711Z,96395.59
2022-09-04T04:41:14.837Z,96392.44
2022-09-04T04:44:03.104Z,96397.19
2022-09-04T04:46:55.263Z,96407.41
2022-09-04T04:49:56.326Z,96411.09
2022-09-04T04:52:54.179Z,96417.69
2022-09-04T04:56:15.501Z,96424.25
2022-09-04T04:59:01.913Z,96436.16
2022-09-04T05:01:43.525Z,96441.13
2022-09-04T05:04:32.128Z,96437.78
2022-09-04T05:07:07.172Z,96444.81
2022-09-04T05:09:55.065Z,96441.13
2022-09-04T05:12:46.130Z,96442.13
2022-09-04T05:16:05.447Z,96443.53
2022-09-04T05:18:40.226Z,96443.13
2022-09-04T05:21:22.839Z,96453.50
2022-09-04T05:24:01.934Z,96448.25
2022-09-04T05:26:53.737Z,96449.06
2022-09-04T05:29:32.786Z,96443.53
2022-09-04T05:32:11.849Z,96453.22
2022-09-04T05:35:02.785Z,96462.44
2022-09-04T05:37:43.198Z,96463.75
2022-09-04T05:40:38.806Z,96458.88
2022-09-04T05:43:50.704Z,96448.53
2022-09-04T05:46:36.082Z,96454.97
2022-09-04T05:49:27.464Z,96452.66
2022-09-04T05:52:20.206Z,96456.38
2022-09-04T05:54:46.944Z,96453.25
2022-09-04T05:57:32.455Z,96455.25
2022-09-04T06:00:07.294Z,96457.63
2022-09-04T06:02:53.244Z,96457.69
2022-09-04T06:06:01.709Z,96458.56
2022-09-04T06:09:06.084Z,96453.28
2022-09-04T06:12:00.652Z,96458.13
2022-09-04T06:14:30.663Z,96459.66
2022-09-04T06:17:06.419Z,96458.38
2022-09-04T06:20:04.521Z,96455.47
2022-09-04T06:22:47.873Z,96454.84
2022-09-04T06:25:33.299Z,96461.84
2022-09-04T06:28:47.505Z,96462.47
2022-09-04T06:31:20.232Z,96466.38
2022-09-04T06:34:20.264Z,96457.81
2022-09-04T06:37:07.506Z,96456.09
2022-09-04T06:39:36.986Z,96457.69
2022-09-04T06:42:21.911Z,96462.84
2022-09-04T06:45:22.773Z,96463.06
2022-09-04T06:48:01.730Z,96466.00
2022-09-04T06:50:43.918Z,96462.28
2022-09-04T06:53:18.855Z,96469.22
2022-09-04T06:56:20.853Z,96467.78
2022-09-04T06:58:54.045Z,96470.25
2022-09-04T07:01:52.453Z,96472.13
2022-09-04T07:04:56.468Z,96476.25
2022-09-04T07:07:39.111Z,96473.59
2022-09-04T07:10:22.668Z,96463.09
2022-09-04T07:12:55.322Z,96474.09
2022-09-04T07:16:02.674Z,96464.69
2022-09-04T07:18:50.716Z,96469.44
2022-09-04T07:21:27.744Z,96473.66
2022-09-04T07:24:06.790Z,96473.69
2022-09-04T07:27:12.324Z,96478.88
2022-09-04T07:29:51.294Z,96472.75
2022-09-04T07:32:44.347Z,96483.59
2022-09-04T07:35:19.170Z,96483.03
2022-09-04T07:38:00.494Z,96487.06
2022-09-04T07:40:39.368Z,96490.72
2022-09-04T07:43:22.534Z,96490.59
2022-09-04T07:46:05.547Z,96490.72
2022-09-04T07:48:44.009Z,96488.94
2022-09-04T07:51:17.107Z,96490.34
2022-09-04T07:54:20.525Z,96489.53
2022-09-04T07:57:25.663Z,96500.75
2022-09-04T08:00:15.357Z,96502.03
2022-09-04T08:03:02.960Z,96502.56
2022-09-04T08:05:49.382Z,96505.09
2022-09-04T08:08:28.124Z,96504.06
2022-09-04T08:11:16.199Z,96497.69
2022-09-04T08:14:19.629Z,96499.66
2022-09-04T08:16:56.777Z,96500.50
2022-09-04T08:19:48.858Z,96493.66
2022-09-04T08:22:28.257Z,96498.84
2022-09-04T08:25:12.043Z,96493.75
2022-09-04T08:27:54.520Z,96496.63
2022-09-04T08:30:22.086Z,96496.53
2022-09-04T08:33:10.288Z,96496.34
2022-09-04T08:36:05.908Z,96489.38
2022-09-04T08:38:42.125Z,96499.03
2022-09-04T08:41:33.725Z,96489.47
2022-09-04T08:44:37.624Z,96484.94
2022-09-04T08:47:28.507Z,96487.66
2022-09-04T08:50:40.315Z,96494.03
2022-09-04T08:53:15.580Z,96480.84
2022-09-04T08:56:20.653Z,96484.44
2022-09-04T08:59:03.907Z,96483.13
2022-09-04T09:01:58.599Z,96483.97
2022-09-04T09:04:34.243Z,96480.09
2022-09-04T09:07:29.354Z,96487.84
2022-09-04T09:10:54.558Z,96494.69
2022-09-04T09:13:33.571Z,96495.00
2022-09-04T09:16:24.859Z,96496.16
2022-09-04T09:19:11.968Z,96500.97
2022-09-04T09:21:52.582Z,96499.44
2022-09-04T09:24:34.156Z,96501.34
2022-09-04T09:27:28.374Z,96490.72
2022-09-04T09:30:12.665Z,96495.34
2022-09-04T09:33:07.161Z,96501.25
2022-09-04T09:35:54.575Z,96497.91
2022-09-04T09:38:42.806Z,96492.56
2022-09-04T09:41:28.602Z,96497.50
2022-09-04T09:44:13.634Z,96490.47
2022-09-04T09:47:02.018Z,96500.38
2022-09-04T09:49:55.535Z,96497.28
2022-09-04T09:52:55.943Z,96505.94
2022-09-04T09:55:28.446Z,96497.50
2022-09-04T09:58:25.708Z,96499.38
2022-09-04T10:01:08.285Z,96500.78
2022-09-04T10:04:34.243Z,96492.09
2022-09-04T10:07:43.320Z,96479.91
2022-09-04T10:10:24.906Z,96490.66
2022-09-04T10:13:13.121Z,96493.16
2022-09-04T10:16:04.308Z,96483.63
2022-09-04T10:18:33.401Z,96488.47
2022-09-04T10:21:14.994Z,96482.94
2022-09-04T10:24:16.220Z,96481.00
2022-09-04T10:27:14.632Z,96484.16
2022-09-04T10:30:14.516Z,96485.31
2022-09-04T10:33:07.936Z,96479.97
2022-09-04T10:35:53.990Z,96486.75
2022-09-04T10:38:27.552Z,96496.44
2022-09-04T10:40:57.003Z,96493.66
2022-09-04T10:43:37.922Z,96492.00
2022-09-04T10:46:13.847Z,96491.75
2022-09-04T10:48:59.028Z,96495.94
2022-09-04T10:51:39.582Z,96501.84
2022-09-04T10:54:33.804Z,96485.47
2022-09-04T10:57:21.581Z,96490.19
2022-09-04T11:00:13.973Z,96502.31
2022-09-04T11:03:03.389Z,96487.81
2022-09-04T11:05:48.429Z,96492.84
2022-09-04T11:08:20.839Z,96487.66
2022-09-04T11:10:53.289Z,96478.47
2022-09-04T11:13:48.080Z,96474.53
2022-09-04T11:16:17.375Z,96475.84
2022-09-04T11:19:15.013Z,96471.03
2022-09-04T11:22:03.117Z,96463.34
2022-09-04T11:25:07.649Z,96456.94
2022-09-04T11:27:55.754Z,96468.50
2022-09-04T11:30:29.209Z,96456.09
2022-09-04T11:33:23.229Z,96460.19
2022-09-04T11:36:13.957Z,96452.94
2022-09-04T11:39:23.639Z,96456.94
2022-09-04T11:42:20.509Z,96458.63
2022-09-04T11:45:03.784Z,96461.78
2022-09-04T11:47:45.701Z,96455.38
2022-09-04T11:50:22.153Z,96457.41
2022-09-04T11:53:13.202Z,96459.75
2022-09-04T11:56:01.190Z,96463.69
2022-09-04T11:59:13.078Z,96455.44
2022-09-04T12:02:04.304Z,96448.66
2022-09-04T12:04:31.090Z,96452.66
2022-09-04T12:07:13.584Z,96456.34
2022-09-04T12:10:01.935Z,96458.63
2022-09-04T12:12:54.267Z,96456.91
2022-09-04T12:15:29.778Z,96464.50
2022-09-04T12:18:34.588Z,96463.38
2022-09-04T12:21:25.474Z,96460.88
2022-09-04T12:24:14.961Z,96463.84
2022-09-04T12:27:02.772Z,96464.84
2022-09-04T12:29:51.260Z,96469.69
2022-09-04T12:32:36.921Z,96481.50
2022-09-04T12:35:21.473Z,96468.63
2022-09-04T12:38:06.649Z,96470.75
2022-09-04T12:40:51.902Z,96468.69
2022-09-04T12:43:30.342Z,96483.00
2022-09-04T12:46:06.169Z,96474.50
2022-09-04T12:48:38.593Z,96479.56
2022-09-04T12:51:13.074Z,96482.75
2022-09-04T12:53:53.108Z,96485.41
2022-09-04T12:56:43.474Z,96483.06
2022-09-04T12:59:38.590Z,96491.16
2022-09-04T13:02:05.355Z,96481.91
2022-09-04T13:04:50.915Z,96481.13
2022-09-04T13:07:33.942Z,96483.69
2022-09-04T13:10:32.751Z,96480.22
2022-09-04T13:13:26.865Z,96479.38
2022-09-04T13:16:01.524Z,96489.84
2022-09-04T13:19:17.455Z,96488.50
2022-09-04T13:21:56.955Z,96479.00
2022-09-04T13:24:44.401Z,96486.34
2022-09-04T13:27:17.436Z,96488.31
2022-09-04T13:30:22.109Z,96492.00
2022-09-04T13:33:13.824Z,96489.72
2022-09-04T13:35:43.514Z,96492.38
2022-09-04T13:38:29.072Z,96495.28
2022-09-04T13:41:12.962Z,96490.41
2022-09-04T13:44:00.703Z,96487.38
2022-09-04T13:46:41.876Z,96489.88
2022-09-04T13:49:19.662Z,96491.31
2022-09-04T13:51:55.618Z,96487.94
2022-09-04T13:54:33.558Z,96491.41
2022-09-04T13:57:10.707Z,96496.66
2022-09-04T13:59:38.414Z,96501.59
2022-09-04T14:02:12.506Z,96506.69
2022-09-04T14:04:45.405Z,96509.88
2022-09-04T14:07:44.645Z,96507.75
2022-09-04T14:10:35.779Z,96508.69
2022-09-04T14:13:15.447Z,96506.72
2022-09-04T14:15:48.074Z,96512.25
2022-09-04T14:18:45.384Z,96510.84
2022-09-04T14:21:15.447Z,96513.31
2022-09-04T14:24:18.774Z,96514.28
2022-09-04T14:26:57.686Z,96522.91
2022-09-04T14:30:08.735Z,96521.66
2022-09-04T14:33:06.184Z,96531.44
2022-09-04T14:35:35.347Z,96531.44
2022-09-04T14:38:20.408Z,96533.66
2022-09-04T14:40:59.741Z,96538.97
2022-09-04T14:44:09.778Z,96547.47
2022-09-04T14:46:51.279Z,96547.72
2022-09-04T14:49:24.164Z,96553.25
2022-09-04T14:51:56.642Z,96556.09
2022-09-04T14:54:31.343Z,96571.06
2022-09-04T14:57:04.582Z,96575.09
2022-09-04T14:59:38.351Z,96586.31
2022-09-04T15:02:14.095Z,96592.28
2022-09-04T15:04:58.243Z,96600.53
2022-09-04T15:07:42.867Z,96603.06
2022-09-04T15:10:31.649Z,96605.00
2022-09-04T15:13:20.384Z,96611.81
2022-09-04T15:15:55.135Z,96617.63
2022-09-04T15:18:24.377Z,96621.41
2022-09-04T15:21:02.143Z,96631.78
2022-09-04T15:23:42.399Z,96636.56
2022-09-04T15:26:25.933Z,96634.00
2022-09-04T15:28:59.949Z,96633.44
2022-09-04T15:31:33.874Z,96635.81
2022-09-04T15:34:04.195Z,96635.91
2022-09-04T15:36:31.857Z,96643.22
2022-09-04T15:39:02.161Z,96634.25
2022-09-04T15:41:48.388Z,96644.13
2022-09-04T15:44:30.367Z,96652.22
2022-09-04T15:47:23.295Z,96652.00
2022-09-04T15:49:55.663Z,96657.47
2022-09-04T15:52:42.444Z,96655.09
2022-09-04T15:55:38.531Z,96652.91
2022-09-04T15:58:15.686Z,96662.59
2022-09-04T16:01:17.177Z,96658.03
2022-09-04T16:04:02.447Z,96652.38
2022-09-04T16:06:35.476Z,96665.78
2022-09-04T16:09:37.918Z,96654.41
2022-09-04T16:12:14.670Z,96659.81
2022-09-04T16:14:49.920Z,96660.63
2022-09-04T16:17:25.247Z,96666.91
2022-09-04T16:20:03.916Z,96665.00
2022-09-04T16:22:47.637Z,96660.28
2022-09-04T16:25:29.165Z,96667.78
2022-09-04T16:28:10.348Z,96682.00
2022-09-04T16:30:44.214Z,96677.84
2022-09-04T16:33:33.162Z,96677.06
2022-09-04T16:36:06.865Z,96685.03
2022-09-04T16:38:59.896Z,96682.38
2022-09-04T16:41:52.557Z,96690.97
2022-09-04T16:44:22.062Z,96686.44
2022-09-04T16:47:19.518Z,96689.56
2022-09-04T16:50:05.878Z,96692.06
2022-09-04T16:52:35.484Z,96699.00
2022-09-04T16:55:24.832Z,96691.91
2022-09-04T16:58:02.432Z,96696.56
2022-09-04T17:00:51.429Z,96708.41
2022-09-04T17:03:24.216Z,96709.88
2022-09-04T17:06:03.173Z,96716.38
2022-09-04T17:08:36.460Z,96718.88
2022-09-04T17:11:15.026Z,96718.28
2022-09-04T17:13:49.993Z,96714.78
2022-09-04T17:16:21.901Z,96722.06
2022-09-04T17:18:54.693Z,96726.25
2022-09-04T17:29:00.616Z,96725.66
2022-09-04T17:29:03.950Z,96731.91
2022-09-04T17:29:12.477Z,96736.72
2022-09-04T17:30:53.233Z,96732.16
2022-09-04T17:40:16.406Z,96741.34
2022-09-04T17:40:43.929Z,96741.94
2022-09-04T17:40:46.714Z,96741.53
2022-09-04T17:42:23.178Z,96740.91
2022-09-04T17:45:22.378Z,96746.94
2022-09-04T17:48:18.558Z,96745.69
2022-09-04T17:50:54.928Z,96758.13
2022-09-04T17:53:34.446Z,96750.84
2022-09-04T17:56:27.248Z,96767.66
2022-09-04T17:59:12.146Z,96767.81
2022-09-04T18:01:51.576Z,96768.84
2022-09-04T18:04:50.855Z,96773.19
2022-09-04T18:08:08.061Z,96783.97
2022-09-04T18:10:34.213Z,96779.53
2022-09-04T18:13:37.851Z,96786.56
2022-09-04T18:16:11.371Z,96787.56
2022-09-04T18:18:52.813Z,96791.69
2022-09-04T18:21:43.872Z,96798.69
2022-09-04T18:24:28.919Z,96803.19
2022-09-04T18:27:20.950Z,96808.16
2022-09-04T18:32:25.274Z,96808.97
2022-09-04T18:37:13.274Z,96816.81
2022-09-04T18:37:23.207Z,96815.94
2022-09-04T18:39:07.977Z,96822.56
2022-09-04T18:48:44.270Z,96824.81
2022-09-04T18:50:25.173Z,96831.19
2022-09-04T18:50:30.656Z,96831.09
2022-09-04T18:51:20.865Z,96835.97
2022-09-04T18:53:59.963Z,96839.50
2022-09-04T18:56:35.565Z,96836.41
2022-09-04T18:59:24.816Z,96836.56
2022-09-04T19:02:04.741Z,96839.81
2022-09-04T19:04:51.892Z,96839.41
2022-09-04T19:07:37.236Z,96837.72
2022-09-04T19:10:33.945Z,96839.94
2022-09-04T19:13:03.681Z,96845.50
2022-09-04T19:15:45.519Z,96847.56
2022-09-04T19:18:21.966Z,96852.09
2022-09-04T19:20:52.740Z,96855.00
2022-09-04T19:23:32.816Z,96845.25
2022-09-04T19:26:07.671Z,96849.16
2022-09-04T19:28:53.186Z,96850.13
2022-09-04T19:31:26.181Z,96855.44
2022-09-04T19:34:19.110Z,96856.41
2022-09-04T19:36:59.128Z,96858.53
2022-09-04T19:46:04.148Z,96861.44
2022-09-04T19:46:13.770Z,96866.31
2022-09-04T19:46:16.780Z,96860.16
2022-09-04T19:51:08.023Z,96859.63
2022-09-04T19:53:21.324Z,96863.34
2022-09-04T19:54:41.484Z,96855.75
2022-09-04T19:57:33.151Z,96857.38
2022-09-04T20:00:42.316Z,96846.38
2022-09-04T20:03:29.050Z,96849.44
2022-09-04T20:06:22.507Z,96846.13
2022-09-04T20:09:05.486Z,96856.00
2022-09-04T20:11:38.937Z,96854.72
2022-09-04T20:14:21.605Z,96857.41
2022-09-04T20:17:13.471Z,96851.75
2022-09-04T20:19:45.888Z,96854.84
2022-09-04T20:22:37.403Z,96858.72
2022-09-04T20:25:07.081Z,96855.59
2022-09-04T20:27:41.817Z,96856.81
2022-09-04T20:30:24.822Z,96854.94
2022-09-04T20:33:06.363Z,96865.41
2022-09-04T20:35:46.994Z,96864.59
2022-09-04T20:38:46.153Z,96860.81
2022-09-04T20:41:27.436Z,96873.78
2022-09-04T20:44:05.452Z,96867.94
2022-09-04T20:52:44.284Z,96866.44
2022-09-04T20:52:52.987Z,96878.56
2022-09-04T20:52:57.428Z,96876.28
2022-09-04T20:55:35.393Z,96878.78
2022-09-04T21:00:59.564Z,96883.94
2022-09-04T21:03:18.897Z,96875.25
2022-09-04T21:04:03.285Z,96877.94
2022-09-04T21:06:34.827Z,96872.91
2022-09-04T21:09:07.441Z,96876.63
2022-09-04T21:11:41.949Z,96886.50
2022-09-04T21:14:45.779Z,96885.69
2022-09-04T21:17:37.611Z,96889.38
2022-09-04T21:20:25.793Z,96894.50
2022-09-04T21:23:05.568Z,96887.63
2022-09-04T21:25:50.567Z,96900.59
2022-09-04T21:28:37.273Z,96903.00
2022-09-04T21:31:39.707Z,96903.38
2022-09-04T21:34:43.604Z,96904.06
2022-09-04T21:37:22.431Z,96898.41
2022-09-04T21:40:30.978Z,96900.47
2022-09-04T21:43:25.603Z,96902.31
2022-09-04T21:46:07.726Z,96909.53
2022-09-04T21:49:26.648Z,96909.53
2022-09-04T21:52:23.851Z,96905.72
2022-09-04T21:58:11.552Z,96905.25
2022-09-04T22:02:36.516Z,96901.31
2022-09-04T22:02:42.252Z,96907.66
2022-09-04T22:05:18.517Z,96896.16
2022-09-04T22:10:57.752Z,96900.31
2022-09-04T22:13:40.088Z,96893.94
2022-09-04T22:13:49.179Z,96898.00
2022-09-04T22:16:44.863Z,96896.22
2022-09-04T22:19:43.747Z,96894.16
2022-09-04T22:22:25.406Z,96893.72
2022-09-04T22:25:10.105Z,96894.09
2022-09-04T22:28:05.880Z,96891.09
2022-09-04T22:30:51.814Z,96893.13
2022-09-04T22:34:16.826Z,96891.44
2022-09-04T22:37:25.807Z,96904.84
2022-09-04T22:40:12.718Z,96900.53
2022-09-04T22:42:58.012Z,96906.59
2022-09-04T22:45:33.386Z,96908.63
2022-09-04T22:48:27.469Z,96902.41
2022-09-04T22:51:22.976Z,96906.28
2022-09-04T22:54:25.589Z,96903.97
2022-09-04T22:56:54.229Z,96915.53
2022-09-04T22:59:52.181Z,96908.50
2022-09-04T23:06:11.334Z,96912.03
2022-09-04T23:13:50.593Z,96909.53
2022-09-04T23:13:59.441Z,96911.72
2022-09-04T23:14:39.165Z,96914.56
2022-09-04T23:17:32.055Z,96916.63
2022-09-04T23:26:36.002Z,96917.94
2022-09-04T23:26:49.608Z,96919.81
2022-09-04T23:26:58.642Z,96914.81
2022-09-04T23:29:59.420Z,96912.13
2022-09-04T23:32:44.677Z,96905.09
2022-09-04T23:35:23.201Z,96906.47
2022-09-04T23:38:03.485Z,96912.81
2022-09-04T23:40:47.206Z,96912.00
2022-09-04T23:43:23.417Z,96907.81
2022-09-04T23:46:08.317Z,96909.81
2022-09-04T23:49:06.707Z,96909.97
2022-09-04T23:51:36.467Z,96911.16
2022-09-04T23:54:34.664Z,96910.53
2022-09-04T23:57:16.876Z,96906.16
